Time;durP1;ratioP1;P1;durP2;ratioP2;P2;SDS_P1;SDS_P2;PMS_P1;PMS_P2;Temp;Humidity;BMP_temperature;BMP_pressure;BME280_temperature;BME280_humidity;BME280_pressure;Samples;Min_cycle;Max_cycle;Signal;HPM_P1;HPM_P2
2024/01/04 00:01:17;;;;;;;8.57;4.73;;;;;;;7.01;100.00;97979.13;4994422;28;20270;-63
2024/01/04 00:03:45;;;;;;;7.83;4.37;;;;;;;7.01;100.00;97979.13;4994019;28;20210;-60
2024/01/04 00:06:15;;;;;;;8.37;4.60;;;;;;;7.01;100.00;97968.88;4992806;28;20222;-58
2024/01/04 00:08:43;;;;;;;7.10;4.53;;;;;;;7.02;100.00;97976.50;4995297;28;20250;-61
2024/01/04 00:11:11;;;;;;;7.03;4.67;;;;;;;7.02;100.00;97981.63;4992355;28;20207;-57
2024/01/04 00:13:40;;;;;;;7.40;4.03;;;;;;;7.02;100.00;97985.91;4991145;28;20278;-58
2024/01/04 00:16:12;;;;;;;9.17;4.40;;;;;;;7.02;100.00;97985.91;4984921;28;20638;-57
2024/01/04 00:18:40;;;;;;;5.30;3.90;;;;;;;7.01;100.00;97989.34;4996705;28;20222;-59
2024/01/04 00:21:12;;;;;;;5.93;4.30;;;;;;;6.99;100.00;97984.25;4993814;28;20214;-59
2024/01/04 00:23:40;;;;;;;10.13;5.23;;;;;;;6.98;100.00;97981.78;4993026;28;20250;-58
2024/01/04 00:26:08;;;;;;;6.03;4.13;;;;;;;6.98;100.00;97980.03;4997093;28;20661;-56
2024/01/04 00:28:36;;;;;;;5.83;3.87;;;;;;;7.00;100.00;97992.81;4992737;28;20219;-58
2024/01/04 00:31:06;;;;;;;9.97;4.37;;;;;;;6.98;100.00;97980.03;4992672;28;20582;-59
2024/01/04 00:33:34;;;;;;;5.90;4.23;;;;;;;6.97;100.00;98000.59;4986630;28;20212;-58
2024/01/04 00:36:02;;;;;;;7.50;4.07;;;;;;;6.95;100.00;97994.66;4998358;28;20246;-58
2024/01/04 00:38:30;;;;;;;4.30;3.60;;;;;;;6.91;100.00;97993.06;5006263;28;20612;-61
2024/01/04 00:40:58;;;;;;;4.90;3.97;;;;;;;6.90;100.00;97991.41;4998119;28;20726;-58
2024/01/04 00:43:26;;;;;;;6.67;4.67;;;;;;;6.90;100.00;97991.41;4999671;28;20208;-58
2024/01/04 00:45:54;;;;;;;7.53;4.10;;;;;;;6.88;100.00;97991.44;4999246;28;20654;-60
2024/01/04 00:48:23;;;;;;;4.30;3.60;;;;;;;6.87;100.00;97992.31;4998845;28;20682;-57
2024/01/04 00:50:51;;;;;;;6.90;4.00;;;;;;;6.89;100.00;98005.09;4991586;28;20301;-59
2024/01/04 00:53:19;;;;;;;6.23;3.70;;;;;;;6.90;100.00;98001.66;4992494;28;20218;-59
2024/01/04 00:55:47;;;;;;;5.93;4.10;;;;;;;6.89;100.00;97995.69;4993249;28;20804;-58
2024/01/04 00:58:15;;;;;;;6.90;3.13;;;;;;;6.93;100.00;97999.00;4992833;28;20208;-57
2024/01/04 01:00:44;;;;;;;4.30;3.47;;;;;;;6.92;100.00;97999.88;4992765;28;20220;-57
2024/01/04 01:03:12;;;;;;;5.50;3.73;;;;;;;6.92;100.00;98005.84;4992061;28;20214;-65
2024/01/04 01:05:41;;;;;;;7.80;4.13;;;;;;;6.92;100.00;97997.31;4992753;28;20236;-58
2024/01/04 01:08:10;;;;;;;6.23;3.50;;;;;;;6.92;100.00;97995.59;4993722;28;20302;-57
2024/01/04 01:10:38;;;;;;;4.90;3.43;;;;;;;6.93;100.00;97999.00;4993737;28;20671;-58
2024/01/04 01:13:06;;;;;;;5.87;3.57;;;;;;;6.92;100.00;97995.59;4992936;28;20207;-58
2024/01/04 01:15:34;;;;;;;8.27;3.77;;;;;;;6.90;100.00;97991.41;4992900;28;20207;-57
2024/01/04 01:18:02;;;;;;;4.60;3.30;;;;;;;6.90;100.00;97988.84;5000075;28;20207;-56
2024/01/04 01:20:30;;;;;;;5.53;3.07;;;;;;;6.90;100.00;97996.53;4996234;28;20675;-58
2024/01/04 01:22:59;;;;;;;6.07;3.50;;;;;;;6.91;100.00;98003.31;4991742;28;20315;-58
2024/01/04 01:25:27;;;;;;;6.13;3.33;;;;;;;6.92;100.00;98004.97;4991790;28;20867;-59
2024/01/04 01:27:55;;;;;;;3.80;3.07;;;;;;;6.94;100.00;98003.22;4991081;28;20208;-58
2024/01/04 01:30:23;;;;;;;7.17;3.20;;;;;;;6.94;100.00;98008.34;4995416;28;20196;-62
2024/01/04 01:32:51;;;;;;;4.13;2.80;;;;;;;6.96;100.00;98009.16;4996699;28;20234;-58
2024/01/04 01:35:20;;;;;;;3.53;3.23;;;;;;;6.97;100.00;98003.97;4983773;28;20657;-59
2024/01/04 01:37:48;;;;;;;3.50;3.10;;;;;;;6.98;100.00;98010.75;4991857;28;20204;-58
2024/01/04 01:40:17;;;;;;;6.27;3.43;;;;;;;7.01;100.00;98004.72;4992033;28;20220;-58
2024/01/04 01:42:48;;;;;;;5.77;3.53;;;;;;;7.02;100.00;98001.28;4990930;28;20652;-58
2024/01/04 01:45:16;;;;;;;4.10;3.27;;;;;;;7.04;100.00;98002.06;4992132;28;20206;-61
2024/01/04 01:47:46;;;;;;;4.13;3.00;;;;;;;7.05;100.00;98006.31;4997004;28;20762;-60
2024/01/04 01:50:20;;;;;;;6.47;3.53;;;;;;;7.07;100.00;98007.09;4996760;28;20192;-58
2024/01/04 01:52:50;;;;;;;7.07;3.67;;;;;;;7.05;100.00;98006.31;4995291;28;20247;-59
2024/01/04 01:55:21;;;;;;;5.97;3.60;;;;;;;7.07;100.00;98006.25;4995744;28;20210;-57
2024/01/04 01:57:49;;;;;;;4.10;3.67;;;;;;;7.07;100.00;98002.00;4997482;28;20204;-62
2024/01/04 02:00:17;;;;;;;7.17;3.77;;;;;;;7.10;100.00;98003.59;5003259;28;20230;-58
2024/01/04 02:02:48;;;;;;;5.77;3.70;;;;;;;7.08;100.00;98001.09;4996060;28;20254;-57
2024/01/04 02:05:17;;;;;;;7.43;3.63;;;;;;;7.11;100.00;98000.16;4995546;28;20263;-57
2024/01/04 02:07:45;;;;;;;4.63;3.57;;;;;;;7.11;100.00;98001.00;4998419;28;20214;-57
2024/01/04 02:10:13;;;;;;;4.97;3.50;;;;;;;7.10;100.00;98004.44;4995936;28;20192;-60
2024/01/04 02:12:43;;;;;;;4.83;3.20;;;;;;;7.12;100.00;98001.84;4996524;28;20212;-58
2024/01/04 02:15:11;;;;;;;6.13;3.47;;;;;;;7.12;100.00;97997.56;4995708;28;20216;-58
2024/01/04 02:17:40;;;;;;;6.80;3.13;;;;;;;7.12;100.00;97999.28;4995342;28;20323;-59
2024/01/04 02:20:09;;;;;;;4.90;3.27;;;;;;;7.12;100.00;97996.72;4994828;28;20302;-61
2024/01/04 02:22:37;;;;;;;5.03;3.23;;;;;;;7.10;100.00;97998.47;4992888;28;20235;-62
2024/01/04 02:25:07;;;;;;;6.70;3.50;;;;;;;7.08;100.00;97998.53;4995444;28;20208;-60
2024/01/04 02:27:35;;;;;;;4.87;3.40;;;;;;;7.08;100.00;97995.97;4995407;28;20203;-59
2024/01/04 02:30:03;;;;;;;4.97;3.20;;;;;;;7.06;100.00;97997.72;4983907;28;20207;-58
2024/01/04 02:32:32;;;;;;;5.93;3.50;;;;;;;7.07;100.00;97990.88;4994171;28;20254;-57
2024/01/04 02:35:00;;;;;;;4.67;3.30;;;;;;;7.06;100.00;97992.59;4999681;28;20200;-57
2024/01/04 02:37:28;;;;;;;3.80;3.33;;;;;;;7.07;100.00;97993.44;4996923;28;20204;-58
2024/01/04 02:39:56;;;;;;;5.10;3.20;;;;;;;7.05;100.00;97990.09;4994742;28;20710;-60
2024/01/04 02:42:25;;;;;;;4.37;3.60;;;;;;;7.06;100.00;97991.78;4997453;28;20651;-57
2024/01/04 02:44:53;;;;;;;8.00;3.87;;;;;;;7.06;100.00;97992.59;4988369;28;20376;-57
2024/01/04 02:47:21;;;;;;;4.67;3.40;;;;;;;7.01;100.00;97982.50;4996486;28;20219;-58
2024/01/04 02:49:49;;;;;;;5.47;3.43;;;;;;;7.01;100.00;97985.06;5006893;28;20293;-59
2024/01/04 02:52:18;;;;;;;5.87;3.37;;;;;;;7.02;100.00;97986.75;4997263;28;20231;-62
2024/01/04 02:54:46;;;;;;;5.17;3.47;;;;;;;7.01;100.00;97985.06;5001036;28;20733;-60
2024/01/04 02:57:14;;;;;;;6.83;4.20;;;;;;;6.99;100.00;97986.81;4998473;28;20251;-60
2024/01/04 02:59:43;;;;;;;6.33;3.60;;;;;;;6.98;100.00;97974.91;4996824;28;20219;-58
2024/01/04 03:02:11;;;;;;;4.43;3.40;;;;;;;6.97;100.00;97982.66;5001917;28;20844;-58
2024/01/04 03:04:42;;;;;;;6.07;3.80;;;;;;;6.94;100.00;97981.03;4995167;28;20238;-62
2024/01/04 03:07:10;;;;;;;4.20;3.33;;;;;;;6.94;100.00;97977.63;4994218;28;20651;-58
2024/01/04 03:09:38;;;;;;;5.03;3.60;;;;;;;6.94;100.00;97977.63;4995994;28;20568;-62
2024/01/04 03:12:06;;;;;;;5.07;3.13;;;;;;;6.92;100.00;97984.50;4998767;28;20643;-58
2024/01/04 03:14:34;;;;;;;6.47;3.50;;;;;;;6.91;100.00;97981.09;4995320;28;20242;-57
2024/01/04 03:17:04;;;;;;;5.07;3.70;;;;;;;6.89;100.00;97976.94;4997698;28;20260;-57
2024/01/04 03:19:32;;;;;;;4.60;3.23;;;;;;;6.87;100.00;97982.09;4997088;28;20218;-59
2024/01/04 03:21:59;;;;;;;4.10;3.47;;;;;;;6.84;100.00;97971.09;4993554;28;20216;-60
2024/01/04 03:24:27;;;;;;;4.60;3.00;;;;;;;6.84;100.00;97971.09;5001696;28;20211;-57
2024/01/04 03:26:55;;;;;;;4.10;3.10;;;;;;;6.82;100.00;97968.59;4994620;28;20678;-57
2024/01/04 03:29:23;;;;;;;3.10;2.80;;;;;;;6.78;100.00;97972.97;4996108;28;20200;-59
2024/01/04 03:31:51;;;;;;;3.53;2.90;;;;;;;6.81;100.00;97976.31;5005693;28;20412;-57
2024/01/04 03:34:20;;;;;;;4.83;2.83;;;;;;;6.81;100.00;97971.19;4998318;28;20205;-57
2024/01/04 03:36:48;;;;;;;4.20;2.50;;;;;;;6.80;100.00;97970.34;4994398;28;20208;-58
2024/01/04 03:39:16;;;;;;;6.47;3.00;;;;;;;6.81;100.00;97968.63;4994296;28;20208;-57
2024/01/04 03:41:44;;;;;;;4.77;2.90;;;;;;;6.81;100.00;97972.03;4999516;28;20216;-62
2024/01/04 03:44:12;;;;;;;3.67;2.93;;;;;;;6.80;100.00;97965.22;4993835;28;20588;-57
2024/01/04 03:46:41;;;;;;;5.37;3.30;;;;;;;6.80;100.00;97967.78;4993964;28;20204;-58
2024/01/04 03:49:09;;;;;;;3.97;2.87;;;;;;;6.81;100.00;97971.19;4997104;28;20200;-56
2024/01/04 03:51:39;;;;;;;5.30;2.90;;;;;;;6.78;100.00;97970.41;5004336;28;20215;-60
2024/01/04 03:54:07;;;;;;;4.70;2.77;;;;;;;6.78;100.00;97967.84;4985000;28;20208;-57
2024/01/04 03:56:35;;;;;;;3.73;3.10;;;;;;;6.80;100.00;97970.34;4994389;28;20767;-58
2024/01/04 03:59:03;;;;;;;4.80;3.40;;;;;;;6.80;100.00;97969.50;4993168;28;20258;-56
2024/01/04 04:01:31;;;;;;;7.80;3.77;;;;;;;6.81;100.00;97971.19;4996932;28;20215;-58
2024/01/04 04:03:59;;;;;;;4.27;3.40;;;;;;;6.83;100.00;97959.19;4998163;28;20204;-61
2024/01/04 04:06:27;;;;;;;4.90;3.83;;;;;;;6.82;100.00;97965.22;4993583;28;20204;-57
2024/01/04 04:08:56;;;;;;;5.50;4.63;;;;;;;6.83;100.00;97965.16;4991578;28;20208;-57
2024/01/04 04:11:24;;;;;;;6.70;4.57;;;;;;;6.84;100.00;97965.97;4993087;28;20235;-58
2024/01/04 04:13:52;;;;;;;6.10;5.23;;;;;;;6.83;100.00;97960.03;4989992;28;20666;-58
2024/01/04 04:16:20;;;;;;;8.50;5.67;;;;;;;6.85;100.00;97962.53;4994327;28;20222;-58
2024/01/04 04:18:48;;;;;;;5.70;4.40;;;;;;;6.83;99.62;97962.59;4999822;28;20227;-57
2024/01/04 04:21:20;;;;;;;6.03;4.30;;;;;;;6.82;99.25;97960.91;4990050;28;20219;-57
2024/01/04 04:23:49;;;;;;;5.40;4.20;;;;;;;6.85;99.78;97952.28;4991117;28;20670;-59
2024/01/04 04:26:20;;;;;;;5.97;3.63;;;;;;;6.86;99.77;97956.53;4993372;28;20219;-61
2024/01/04 04:28:49;;;;;;;4.47;3.80;;;;;;;6.85;99.65;97962.53;4990344;28;20210;-57
2024/01/04 04:31:19;;;;;;;4.97;3.80;;;;;;;6.84;99.93;97963.41;4994045;28;20208;-58
2024/01/04 04:33:48;;;;;;;7.40;4.20;;;;;;;6.87;99.62;97964.16;4993344;28;20571;-60
2024/01/04 04:36:17;;;;;;;5.33;4.20;;;;;;;6.88;100.00;97968.41;4994203;28;20235;-58
2024/01/04 04:38:45;;;;;;;4.60;3.50;;;;;;;6.88;99.90;97963.28;4992953;28;20251;-60
2024/01/04 04:41:13;;;;;;;6.53;3.43;;;;;;;6.89;99.80;97961.56;5001495;28;20223;-59
2024/01/04 04:43:42;;;;;;;4.70;2.90;;;;;;;6.88;99.95;97962.44;5002002;28;20208;-64
2024/01/04 04:46:11;;;;;;;4.30;2.87;;;;;;;6.89;99.82;97964.97;4995386;28;20239;-57
2024/01/04 04:48:39;;;;;;;5.43;3.20;;;;;;;6.89;100.00;97961.56;4995793;28;20203;-58
2024/01/04 04:51:07;;;;;;;6.17;3.07;;;;;;;6.89;99.63;97967.53;5003952;28;20200;-58
2024/01/04 04:53:35;;;;;;;4.63;2.77;;;;;;;6.89;99.90;97964.13;4997877;28;20217;-56
2024/01/04 04:56:04;;;;;;;4.13;3.30;;;;;;;6.85;99.45;97960.84;4992879;28;20219;-59
2024/01/04 04:58:32;;;;;;;4.43;2.90;;;;;;;6.83;99.89;97961.75;4999310;28;20203;-59
2024/01/04 05:01:01;;;;;;;4.10;3.00;;;;;;;6.78;100.00;97965.28;4999562;28;20223;-59
2024/01/04 05:03:29;;;;;;;4.60;3.00;;;;;;;6.77;99.62;97973.88;4999331;28;20277;-56
2024/01/04 05:05:57;;;;;;;5.70;3.63;;;;;;;6.77;100.00;97970.44;4992325;28;20200;-57
2024/01/04 05:08:25;;;;;;;5.03;2.90;;;;;;;6.76;100.00;97972.16;5001802;28;20254;-57
2024/01/04 05:10:53;;;;;;;3.70;2.77;;;;;;;6.76;100.00;97971.31;4993186;28;20670;-60
2024/01/04 05:13:21;;;;;;;6.67;3.63;;;;;;;6.74;99.98;97968.81;5004394;28;20250;-57
2024/01/04 05:15:49;;;;;;;4.33;3.00;;;;;;;6.74;100.00;97966.28;4994046;28;20569;-57
2024/01/04 05:18:18;;;;;;;4.17;2.83;;;;;;;6.75;100.00;97969.66;4989994;28;20529;-57
2024/01/04 05:20:47;;;;;;;5.70;2.60;;;;;;;6.75;100.00;97962.81;4993641;28;20204;-57
2024/01/04 05:23:15;;;;;;;7.00;3.20;;;;;;;6.76;100.00;97969.59;5006363;28;20238;-64
2024/01/04 05:25:42;;;;;;;4.27;2.80;;;;;;;6.78;99.97;97967.84;4991869;28;20550;-60
2024/01/04 05:28:10;;;;;;;4.53;3.10;;;;;;;6.77;100.00;97961.06;4996110;28;20640;-58
2024/01/04 05:30:39;;;;;;;4.07;2.80;;;;;;;6.78;99.76;97967.84;4991131;28;20675;-59
2024/01/04 05:33:07;;;;;;;4.60;3.40;;;;;;;6.78;100.00;97967.84;4999273;28;20298;-57
2024/01/04 05:35:38;;;;;;;6.37;3.33;;;;;;;6.79;100.00;97968.69;4999323;28;20736;-55
2024/01/04 05:38:06;;;;;;;3.80;2.97;;;;;;;6.82;100.00;97978.00;4994792;28;20199;-56
2024/01/04 05:40:34;;;;;;;3.90;3.10;;;;;;;6.83;100.00;97979.66;4998885;28;20231;-57
2024/01/04 05:43:02;;;;;;;7.70;2.97;;;;;;;6.83;99.63;97982.22;4993012;28;20676;-58
2024/01/04 05:45:30;;;;;;;4.63;3.40;;;;;;;6.83;99.76;97982.22;4998981;28;20261;-59
2024/01/04 05:48:00;;;;;;;5.77;3.20;;;;;;;6.82;99.72;97983.13;5002840;28;20203;-57
2024/01/04 05:50:28;;;;;;;5.33;3.20;;;;;;;6.82;99.54;97988.25;4997013;28;20211;-57
2024/01/04 05:52:58;;;;;;;5.53;3.20;;;;;;;6.82;99.89;97988.25;4994390;28;20270;-57
2024/01/04 05:55:28;;;;;;;3.27;2.93;;;;;;;6.81;99.99;97984.81;5001671;28;20207;-58
2024/01/04 05:57:56;;;;;;;7.40;3.13;;;;;;;6.82;99.99;97993.34;5006153;28;20227;-58
2024/01/04 06:00:24;;;;;;;4.17;2.90;;;;;;;6.81;99.71;97991.66;5001851;28;20739;-58
2024/01/04 06:02:52;;;;;;;3.90;3.33;;;;;;;6.83;100.00;97997.59;4992004;28;20263;-62
2024/01/04 06:05:20;;;;;;;4.60;3.10;;;;;;;6.83;99.13;98000.97;4993969;28;20235;-63
2024/01/04 06:07:48;;;;;;;5.70;3.30;;;;;;;6.82;99.25;98004.44;4996973;28;20204;-63
2024/01/04 06:10:18;;;;;;;6.63;3.47;;;;;;;6.82;99.51;98007.00;4996661;28;20659;-61
2024/01/04 06:12:45;;;;;;;5.13;3.33;;;;;;;6.84;99.05;97994.13;4987495;28;20223;-65
2024/01/04 06:15:14;;;;;;;6.83;3.13;;;;;;;6.85;99.03;98003.47;5001176;28;20219;-64
2024/01/04 06:17:42;;;;;;;5.60;3.20;;;;;;;6.86;99.60;98010.31;4993469;28;20235;-61
2024/01/04 06:20:10;;;;;;;5.33;3.50;;;;;;;6.85;98.53;97999.22;5000753;28;20212;-61
2024/01/04 06:22:39;;;;;;;4.97;3.30;;;;;;;6.87;99.51;98007.69;4996193;28;20647;-62
2024/01/04 06:25:10;;;;;;;5.53;3.20;;;;;;;6.86;99.31;98006.00;4999848;28;20207;-67
2024/01/04 06:27:39;;;;;;;4.60;3.27;;;;;;;6.85;99.00;98008.59;5004813;28;20216;-62
2024/01/04 06:30:09;;;;;;;4.27;3.27;;;;;;;6.84;98.54;98006.94;4996314;28;20210;-62
2024/01/04 06:32:37;;;;;;;5.57;2.60;;;;;;;6.84;99.00;98007.78;4993633;28;20204;-64
2024/01/04 06:35:06;;;;;;;4.17;3.07;;;;;;;6.82;99.11;98004.44;4991562;28;20219;-62
2024/01/04 06:37:33;;;;;;;4.53;2.77;;;;;;;6.83;98.77;98000.97;4991085;28;20208;-54
2024/01/04 06:40:05;;;;;;;6.17;3.37;;;;;;;6.83;99.74;98000.97;4997624;28;20811;-59
2024/01/04 06:42:36;;;;;;;5.30;3.30;;;;;;;6.84;99.01;98000.09;5003643;28;20660;-52
2024/01/04 06:45:06;;;;;;;5.77;2.77;;;;;;;6.84;98.70;98001.81;4999603;28;20315;-51
2024/01/04 06:47:34;;;;;;;4.20;3.30;;;;;;;6.84;98.54;97992.41;4992339;28;20252;-52
2024/01/04 06:50:03;;;;;;;6.30;3.00;;;;;;;6.80;98.76;97990.00;5000219;28;20204;-51
2024/01/04 06:52:44;;;;;;;5.63;3.20;;;;;;;6.85;99.00;97996.66;4992474;28;20585;-54
2024/01/04 06:55:13;;;;;;;4.70;3.60;;;;;;;6.85;98.53;97999.22;4990687;28;20214;-54
2024/01/04 06:57:41;;;;;;;5.80;3.60;;;;;;;6.85;98.37;98001.78;4999202;28;20231;-53
2024/01/04 07:00:12;;;;;;;4.40;3.10;;;;;;;6.86;98.62;98000.06;4993474;28;20702;-55
2024/01/04 07:02:40;;;;;;;5.80;3.83;;;;;;;6.85;98.21;98006.91;4997599;28;20769;-55
2024/01/04 07:05:10;;;;;;;4.63;2.93;;;;;;;6.85;99.37;97998.38;5000445;28;20234;-52
2024/01/04 07:07:38;;;;;;;5.73;3.10;;;;;;;6.86;98.52;98000.06;5004044;28;20215;-58
2024/01/04 07:10:07;;;;;;;6.30;3.40;;;;;;;6.86;97.87;97997.50;4995655;28;20594;-52
2024/01/04 07:12:35;;;;;;;4.20;3.60;;;;;;;6.88;98.38;97990.59;4997892;28;20243;-53
2024/01/04 07:15:04;;;;;;;5.77;3.60;;;;;;;6.88;97.87;97995.72;4995408;28;20208;-58
2024/01/04 07:17:34;;;;;;;5.93;3.97;;;;;;;6.89;98.81;97998.25;4992415;28;20208;-53
2024/01/04 07:20:03;;;;;;;6.90;3.87;;;;;;;6.88;98.54;97994.00;4992357;28;20200;-53
2024/01/04 07:22:31;;;;;;;6.87;3.83;;;;;;;6.90;98.44;97993.97;4993620;28;20240;-53
2024/01/04 07:24:59;;;;;;;8.93;3.73;;;;;;;6.90;98.13;97994.78;4993886;28;20250;-59
2024/01/04 07:27:27;;;;;;;7.83;4.17;;;;;;;6.90;99.23;97999.09;4987608;28;20216;-53
2024/01/04 07:29:58;;;;;;;5.97;4.10;;;;;;;6.92;98.28;98004.97;4991920;28;20208;-60
2024/01/04 07:32:26;;;;;;;8.57;3.77;;;;;;;6.92;98.54;97994.75;4994092;28;20598;-59
2024/01/04 07:34:55;;;;;;;6.80;3.83;;;;;;;6.92;97.70;98010.09;4993755;28;20239;-60
2024/01/04 07:37:39;;;;;;;6.03;4.10;;;;;;;6.92;98.95;97999.88;4995305;28;20207;-56
2024/01/04 07:40:08;;;;;;;6.97;4.30;;;;;;;6.95;98.56;98007.44;4988541;28;20696;-58
2024/01/04 07:42:36;;;;;;;5.40;3.83;;;;;;;6.94;97.91;98008.34;4993496;28;20691;-61
2024/01/04 07:45:05;;;;;;;4.90;3.80;;;;;;;6.92;98.27;97993.03;4984127;28;20207;-56
2024/01/04 07:47:36;;;;;;;6.60;4.63;;;;;;;6.96;98.46;97998.91;4994330;28;20200;-55
2024/01/04 07:50:08;;;;;;;5.80;3.80;;;;;;;6.95;98.45;97992.09;4992975;28;20655;-56
2024/01/04 07:52:35;;;;;;;5.10;4.10;;;;;;;6.95;98.82;97995.50;4993862;28;20670;-61
2024/01/04 07:55:04;;;;;;;5.03;4.00;;;;;;;6.98;98.43;97999.69;4990904;28;20234;-61
2024/01/04 07:57:34;;;;;;;5.30;4.20;;;;;;;6.96;98.84;97998.91;4990722;28;20204;-60
2024/01/04 08:00:03;;;;;;;6.20;4.77;;;;;;;6.95;98.96;98002.34;4994782;28;20214;-60
2024/01/04 08:02:32;;;;;;;6.57;5.00;;;;;;;6.96;98.93;97996.34;4993429;28;20208;-61
2024/01/04 08:05:01;;;;;;;5.73;5.13;;;;;;;6.95;98.80;98000.59;4995345;28;20574;-60
2024/01/04 08:07:30;;;;;;;7.90;5.60;;;;;;;6.95;99.72;97999.78;4994135;28;20658;-60
2024/01/04 08:09:58;;;;;;;6.60;5.20;;;;;;;6.94;99.54;97993.81;4992474;28;20208;-60
2024/01/04 08:12:26;;;;;;;8.17;5.63;;;;;;;6.96;99.70;98004.88;4994883;28;20214;-59
2024/01/04 08:14:54;;;;;;;7.33;6.13;;;;;;;6.97;99.88;97998.03;4993884;28;20203;-63
2024/01/04 08:17:22;;;;;;;7.70;5.43;;;;;;;6.96;99.89;97998.91;4993850;28;20203;-58
2024/01/04 08:19:50;;;;;;;9.33;6.83;;;;;;;6.97;99.23;97995.47;4992436;28;20219;-52
2024/01/04 08:22:18;;;;;;;7.57;6.27;;;;;;;6.97;99.90;98006.53;4995855;28;20235;-53
2024/01/04 08:24:47;;;;;;;9.40;5.00;;;;;;;6.99;99.80;98006.47;4991369;28;20235;-57
2024/01/04 08:27:18;;;;;;;8.03;5.97;;;;;;;7.02;99.80;97993.59;4999809;28;20545;-57
2024/01/04 08:29:48;;;;;;;7.03;5.27;;;;;;;7.03;99.59;98008.06;4992987;28;20204;-52
2024/01/04 08:32:17;;;;;;;9.27;6.33;;;;;;;7.05;100.00;98011.44;4994446;28;20601;-52
2024/01/04 08:34:47;;;;;;;6.80;5.33;;;;;;;7.05;99.55;98002.91;4996516;28;20220;-56
2024/01/04 08:37:18;;;;;;;6.17;4.57;;;;;;;7.03;99.78;98008.06;4989963;28;20624;-53
2024/01/04 08:39:48;;;;;;;6.00;4.80;;;;;;;7.04;100.00;98004.63;4996936;28;20258;-51
2024/01/04 08:42:15;;;;;;;9.40;5.73;;;;;;;7.04;99.88;98003.81;4995524;28;20212;-55
2024/01/04 08:44:47;;;;;;;7.03;5.13;;;;;;;7.08;99.16;98011.34;4994266;28;20215;-52
2024/01/04 08:47:15;;;;;;;6.63;5.13;;;;;;;7.11;99.61;98006.13;4996812;28;20200;-51
2024/01/04 08:49:43;;;;;;;6.77;5.13;;;;;;;7.12;99.59;98010.34;4994116;28;20207;-56
2024/01/04 08:52:11;;;;;;;6.23;5.20;;;;;;;7.15;99.03;98010.28;4993538;28;20693;-55
2024/01/04 08:54:39;;;;;;;7.87;4.93;;;;;;;7.17;98.71;98017.88;4988741;28;20231;-53
2024/01/04 08:57:08;;;;;;;5.10;4.60;;;;;;;7.15;98.31;98012.84;4996290;28;20304;-54
2024/01/04 08:59:37;;;;;;;6.87;5.10;;;;;;;7.17;98.93;98025.56;5001066;28;20303;-52
2024/01/04 09:02:05;;;;;;;6.17;5.20;;;;;;;7.14;98.75;98011.16;4995590;28;20266;-54
2024/01/04 09:04:35;;;;;;;7.23;5.27;;;;;;;7.16;98.43;98016.22;4988710;28;20224;-59
2024/01/04 09:07:03;;;;;;;8.40;5.30;;;;;;;7.18;99.03;98017.88;4993016;28;20714;-53
2024/01/04 09:09:31;;;;;;;6.77;5.43;;;;;;;7.19;99.37;98024.66;4991875;28;20651;-53
2024/01/04 09:11:59;;;;;;;6.30;5.33;;;;;;;7.18;98.92;98010.19;5003112;28;20689;-51
2024/01/04 09:14:30;;;;;;;6.97;5.40;;;;;;;7.15;99.85;98017.13;4988306;28;20227;-53
2024/01/04 09:16:58;;;;;;;6.80;5.47;;;;;;;7.14;100.00;98021.41;4992622;28;20207;-54
2024/01/04 09:19:26;;;;;;;6.60;5.23;;;;;;;7.17;99.55;98026.41;4990769;28;20232;-56
2024/01/04 09:21:56;;;;;;;7.40;4.73;;;;;;;7.17;99.21;98020.44;4989342;28;20204;-51
2024/01/04 09:24:24;;;;;;;6.57;5.53;;;;;;;7.18;99.14;98028.09;4986161;28;20255;-55
2024/01/04 09:26:52;;;;;;;6.67;5.23;;;;;;;7.20;99.41;98026.31;4990298;28;20208;-50
2024/01/04 09:29:20;;;;;;;5.73;4.63;;;;;;;7.21;100.00;98029.72;4989044;28;20220;-49
2024/01/04 09:31:49;;;;;;;6.70;4.70;;;;;;;7.20;99.99;98025.50;4993200;28;20204;-50
2024/01/04 09:34:17;;;;;;;5.17;4.40;;;;;;;7.19;100.00;98018.69;4992808;28;20207;-52
2024/01/04 09:36:46;;;;;;;5.73;5.10;;;;;;;7.17;99.37;98026.41;4993586;28;20204;-53
2024/01/04 09:39:17;;;;;;;4.90;4.40;;;;;;;7.18;100.00;98025.53;4991850;28;20772;-54
2024/01/04 09:41:48;;;;;;;5.13;4.13;;;;;;;7.15;99.65;98012.84;4989123;28;20655;-55
2024/01/04 09:44:16;;;;;;;5.60;4.33;;;;;;;7.15;100.00;98028.19;4991513;28;20255;-54
2024/01/04 09:46:45;;;;;;;4.70;4.17;;;;;;;7.17;100.00;98021.28;4993509;28;20224;-55
2024/01/04 09:49:14;;;;;;;5.37;4.70;;;;;;;7.21;100.00;98022.03;4987356;28;20204;-55
2024/01/04 09:51:43;;;;;;;5.17;3.93;;;;;;;7.22;100.00;98014.31;4990807;28;20204;-55
2024/01/04 09:54:12;;;;;;;7.53;4.60;;;;;;;7.23;99.71;98012.59;4993294;28;20211;-60
2024/01/04 09:56:42;;;;;;;5.17;4.00;;;;;;;7.26;100.00;98004.81;4995962;28;20212;-52
2024/01/04 09:59:11;;;;;;;4.63;3.70;;;;;;;7.25;99.31;98019.34;4990808;28;20244;-51
2024/01/04 10:01:40;;;;;;;5.20;3.90;;;;;;;7.21;100.00;98019.47;5002203;28;20223;-54
2024/01/04 10:04:11;;;;;;;5.00;4.17;;;;;;;7.21;100.00;98017.75;4989619;28;20223;-53
2024/01/04 10:06:43;;;;;;;7.00;4.30;;;;;;;7.23;99.88;98013.44;4990180;28;20231;-52
2024/01/04 10:09:16;;;;;;;4.60;4.00;;;;;;;7.21;99.43;98016.91;4992456;28;20216;-54
2024/01/04 10:11:56;;;;;;;4.63;4.10;;;;;;;7.21;100.00;98017.75;4989190;28;20617;-57
2024/01/04 10:14:25;;;;;;;5.23;3.67;;;;;;;7.21;100.00;98017.75;4991791;28;20686;-57
2024/01/04 10:16:53;;;;;;;5.47;3.93;;;;;;;7.21;100.00;98010.06;4999150;28;20208;-58
2024/01/04 10:19:21;;;;;;;5.57;3.53;;;;;;;7.24;100.00;98012.53;4996233;28;20227;-56
2024/01/04 10:21:51;;;;;;;5.50;4.00;;;;;;;7.25;100.00;98026.16;4994988;28;20294;-49
2024/01/04 10:24:22;;;;;;;5.33;3.90;;;;;;;7.22;100.00;98024.56;4993102;28;20678;-53
2024/01/04 10:26:57;;;;;;;4.97;3.97;;;;;;;7.24;99.54;98027.06;4997496;28;20203;-54
2024/01/04 10:29:26;;;;;;;6.60;4.07;;;;;;;7.23;100.00;98026.22;4987600;28;20609;-53
2024/01/04 10:32:01;;;;;;;4.87;4.00;;;;;;;7.24;99.97;98022.78;4994277;28;20561;-54
2024/01/04 10:34:29;;;;;;;4.23;3.77;;;;;;;7.29;99.66;98024.34;4993326;28;20258;-53
2024/01/04 10:37:13;;;;;;;5.03;3.57;;;;;;;7.27;99.15;98026.97;4993993;28;20203;-52
2024/01/04 10:39:45;;;;;;;7.33;3.90;;;;;;;7.30;99.70;98032.00;4989774;28;20201;-51
2024/01/04 10:42:15;;;;;;;4.27;3.77;;;;;;;7.33;99.17;98029.38;4994684;28;20213;-50
2024/01/04 10:44:45;;;;;;;4.20;3.70;;;;;;;7.34;99.36;98020.78;4992968;28;20602;-53
2024/01/04 10:47:14;;;;;;;6.03;3.97;;;;;;;7.37;98.71;98019.84;4989654;28;20682;-54
2024/01/04 10:49:46;;;;;;;5.23;3.97;;;;;;;7.40;99.70;98017.16;4990559;28;20208;-51
2024/01/04 10:52:17;;;;;;;4.57;3.90;;;;;;;7.48;99.78;98013.50;4995132;28;20207;-50
2024/01/04 10:54:45;;;;;;;4.50;3.83;;;;;;;7.51;98.63;98012.56;4996524;28;20655;-52
2024/01/04 10:57:14;;;;;;;5.40;4.30;;;;;;;7.54;97.82;98009.88;4994086;28;20607;-51
2024/01/04 10:59:44;;;;;;;5.10;4.00;;;;;;;7.59;98.55;98014.91;4990932;28;20219;-54
2024/01/04 11:02:13;;;;;;;4.93;4.40;;;;;;;7.55;97.06;98010.72;4994602;28;20220;-52
2024/01/04 11:04:42;;;;;;;5.90;4.53;;;;;;;7.55;97.48;98010.72;4991643;28;20707;-51
2024/01/04 11:07:10;;;;;;;5.63;4.90;;;;;;;7.53;96.79;98015.09;4999089;28;20207;-56
2024/01/04 11:09:40;;;;;;;5.93;5.00;;;;;;;7.45;97.73;98016.16;4994051;28;20207;-50
2024/01/04 11:12:09;;;;;;;6.17;5.27;;;;;;;7.43;97.50;98020.47;4993734;28;20219;-54
2024/01/04 11:14:37;;;;;;;7.00;5.60;;;;;;;7.44;97.60;98016.22;4994328;28;20199;-59
2024/01/04 11:17:18;;;;;;;5.37;4.87;;;;;;;7.43;98.29;98009.41;4997050;28;20597;-57
2024/01/04 11:20:00;;;;;;;6.20;5.20;;;;;;;7.44;97.90;98003.41;4994467;28;20724;-53
2024/01/04 11:22:46;;;;;;;7.80;6.20;;;;;;;7.45;97.85;98010.19;4995395;28;20268;-58
2024/01/04 11:25:30;;;;;;;8.27;5.93;;;;;;;7.45;97.70;98013.59;4987142;28;20676;-63
2024/01/04 11:27:59;;;;;;;6.83;5.40;;;;;;;7.47;97.39;97998.16;4991115;28;20207;-51
2024/01/04 11:30:28;;;;;;;6.23;5.63;;;;;;;7.50;97.91;97998.06;4998012;28;20200;-58
2024/01/04 11:32:56;;;;;;;6.60;5.83;;;;;;;7.55;97.08;98003.03;4998779;28;20562;-53
2024/01/04 11:35:24;;;;;;;6.87;5.90;;;;;;;7.57;97.07;97999.53;4999601;28;20283;-52
2024/01/04 11:37:53;;;;;;;6.53;5.87;;;;;;;7.61;96.44;98010.53;4993812;28;20200;-54
2024/01/04 11:40:27;;;;;;;7.47;6.60;;;;;;;7.63;97.05;98007.06;4998366;28;20263;-56
2024/01/04 11:42:55;;;;;;;5.97;5.30;;;;;;;7.63;96.14;98004.47;4995665;28;20200;-54
2024/01/04 11:45:25;;;;;;;6.00;5.13;;;;;;;7.64;95.92;98008.72;4994601;28;20223;-56